sensor_id;sensor_type;location;lat;lon;timestamp;temperature;humidity
30534;DHT22;17318;52.390;9.754;2022-09-27T00:02:13;12.80;99.90
30534;DHT22;17318;52.390;9.754;2022-09-27T00:04:39;12.80;99.90
30534;DHT22;17318;52.390;9.754;2022-09-27T00:07:04;12.80;99.90
30534;DHT22;17318;52.390;9.754;2022-09-27T00:09:30;12.80;99.90
30534;DHT22;17318;52.390;9.754;2022-09-27T00:11:56;12.80;99.90
30534;DHT22;17318;52.390;9.754;2022-09-27T00:14:21;12.80;99.90
30534;DHT22;17318;52.390;9.754;2022-09-27T00:16:47;12.70;99.90
30534;DHT22;17318;52.390;9.754;2022-09-27T00:19:18;12.80;99.90
30534;DHT22;17318;52.390;9.754;2022-09-27T00:21:45;12.80;99.90
30534;DHT22;17318;52.390;9.754;2022-09-27T00:24:17;12.80;99.90
30534;DHT22;17318;52.390;9.754;2022-09-27T00:26:43;12.70;99.90
30534;DHT22;17318;52.390;9.754;2022-09-27T00:29:10;12.70;99.90
30534;DHT22;17318;52.390;9.754;2022-09-27T00:31:36;12.80;99.90
30534;DHT22;17318;52.390;9.754;2022-09-27T00:34:04;12.80;99.90
30534;DHT22;17318;52.390;9.754;2022-09-27T00:36:31;12.80;99.90
30534;DHT22;17318;52.390;9.754;2022-09-27T00:38:57;12.80;99.90
30534;DHT22;17318;52.390;9.754;2022-09-27T00:41:28;12.80;99.90
30534;DHT22;17318;52.390;9.754;2022-09-27T00:44:00;12.70;99.90
30534;DHT22;17318;52.390;9.754;2022-09-27T00:46:46;12.80;99.90
30534;DHT22;17318;52.390;9.754;2022-09-27T00:51:47;12.80;99.90
30534;DHT22;17318;52.390;9.754;2022-09-27T00:54:16;12.70;99.90
30534;DHT22;17318;52.390;9.754;2022-09-27T00:56:43;12.70;99.90
30534;DHT22;17318;52.390;9.754;2022-09-27T00:59:35;12.80;99.90
30534;DHT22;17318;52.390;9.754;2022-09-27T01:02:04;12.80;99.90
30534;DHT22;17318;52.390;9.754;2022-09-27T01:04:31;12.80;99.90
30534;DHT22;17318;52.390;9.754;2022-09-27T01:06:58;12.80;99.90
30534;DHT22;17318;52.390;9.754;2022-09-27T01:09:24;12.80;99.90
30534;DHT22;17318;52.390;9.754;2022-09-27T01:18:28;12.80;99.90
30534;DHT22;17318;52.390;9.754;2022-09-27T01:24:30;12.80;99.90
30534;DHT22;17318;52.390;9.754;2022-09-27T01:36:06;12.80;99.90
30534;DHT22;17318;52.390;9.754;2022-09-27T01:44:08;12.80;99.90
30534;DHT22;17318;52.390;9.754;2022-09-27T01:46:36;12.70;99.90
30534;DHT22;17318;52.390;9.754;2022-09-27T01:49:09;12.80;99.90
30534;DHT22;17318;52.390;9.754;2022-09-27T01:51:57;12.80;99.90
30534;DHT22;17318;52.390;9.754;2022-09-27T01:54:30;12.90;99.90
30534;DHT22;17318;52.390;9.754;2022-09-27T01:56:58;12.80;99.90
30534;DHT22;17318;52.390;9.754;2022-09-27T01:59:45;12.80;99.90
30534;DHT22;17318;52.390;9.754;2022-09-27T02:02:12;12.80;99.90
30534;DHT22;17318;52.390;9.754;2022-09-27T02:04:41;12.90;99.90
30534;DHT22;17318;52.390;9.754;2022-09-27T02:07:14;12.90;99.90
30534;DHT22;17318;52.390;9.754;2022-09-27T02:09:49;12.90;99.90
30534;DHT22;17318;52.390;9.754;2022-09-27T02:12:22;12.80;99.90
30534;DHT22;17318;52.390;9.754;2022-09-27T02:14:57;12.80;99.90
30534;DHT22;17318;52.390;9.754;2022-09-27T02:17:45;12.80;99.90
30534;DHT22;17318;52.390;9.754;2022-09-27T02:25:44;12.80;99.90
30534;DHT22;17318;52.390;9.754;2022-09-27T02:28:27;12.80;99.90
30534;DHT22;17318;52.390;9.754;2022-09-27T02:30:54;12.90;99.90
30534;DHT22;17318;52.390;9.754;2022-09-27T02:33:25;12.80;99.90
30534;DHT22;17318;52.390;9.754;2022-09-27T02:35:52;12.80;99.90
30534;DHT22;17318;52.390;9.754;2022-09-27T02:38:19;12.80;99.90
30534;DHT22;17318;52.390;9.754;2022-09-27T02:40:46;12.80;99.90
30534;DHT22;17318;52.390;9.754;2022-09-27T02:43:14;12.80;99.90
30534;DHT22;17318;52.390;9.754;2022-09-27T02:57:36;12.80;99.90
30534;DHT22;17318;52.390;9.754;2022-09-27T03:05:14;12.80;99.90
30534;DHT22;17318;52.390;9.754;2022-09-27T03:07:42;12.80;99.90
30534;DHT22;17318;52.390;9.754;2022-09-27T03:10:19;12.90;99.90
30534;DHT22;17318;52.390;9.754;2022-09-27T03:12:45;12.80;99.90
30534;DHT22;17318;52.390;9.754;2022-09-27T03:15:11;12.90;99.90
30534;DHT22;17318;52.390;9.754;2022-09-27T03:17:38;12.80;99.90
30534;DHT22;17318;52.390;9.754;2022-09-27T03:20:04;12.90;99.90
30534;DHT22;17318;52.390;9.754;2022-09-27T03:22:30;12.80;99.90
30534;DHT22;17318;52.390;9.754;2022-09-27T03:24:56;12.90;99.90
30534;DHT22;17318;52.390;9.754;2022-09-27T03:27:21;12.90;99.90
30534;DHT22;17318;52.390;9.754;2022-09-27T03:29:47;12.90;99.90
30534;DHT22;17318;52.390;9.754;2022-09-27T03:32:13;13.00;99.90
30534;DHT22;17318;52.390;9.754;2022-09-27T03:34:39;13.00;99.90
30534;DHT22;17318;52.390;9.754;2022-09-27T03:37:04;13.00;99.90
30534;DHT22;17318;52.390;9.754;2022-09-27T03:39:30;13.00;99.90
30534;DHT22;17318;52.390;9.754;2022-09-27T03:41:56;13.00;99.90
30534;DHT22;17318;52.390;9.754;2022-09-27T03:44:21;13.00;99.90
30534;DHT22;17318;52.390;9.754;2022-09-27T03:46:47;12.90;99.90
30534;DHT22;17318;52.390;9.754;2022-09-27T03:49:13;12.70;99.90
30534;DHT22;17318;52.390;9.754;2022-09-27T03:51:38;12.80;99.90
30534;DHT22;17318;52.390;9.754;2022-09-27T03:54:04;12.90;99.90
30534;DHT22;17318;52.390;9.754;2022-09-27T03:56:30;13.00;99.90
30534;DHT22;17318;52.390;9.754;2022-09-27T03:58:55;12.90;99.90
30534;DHT22;17318;52.390;9.754;2022-09-27T04:01:21;13.00;99.90
30534;DHT22;17318;52.390;9.754;2022-09-27T04:03:47;12.80;99.90
30534;DHT22;17318;52.390;9.754;2022-09-27T04:06:12;12.80;99.90
30534;DHT22;17318;52.390;9.754;2022-09-27T04:08:39;12.70;99.90
30534;DHT22;17318;52.390;9.754;2022-09-27T04:11:04;12.70;99.90
30534;DHT22;17318;52.390;9.754;2022-09-27T04:13:30;12.70;99.90
30534;DHT22;17318;52.390;9.754;2022-09-27T04:15:56;12.70;99.90
30534;DHT22;17318;52.390;9.754;2022-09-27T04:18:22;12.80;99.90
30534;DHT22;17318;52.390;9.754;2022-09-27T04:20:47;12.80;99.90
30534;DHT22;17318;52.390;9.754;2022-09-27T04:23:13;12.60;99.90
30534;DHT22;17318;52.390;9.754;2022-09-27T04:25:38;12.70;99.90
30534;DHT22;17318;52.390;9.754;2022-09-27T04:28:04;12.80;99.90
30534;DHT22;17318;52.390;9.754;2022-09-27T04:30:30;12.70;99.90
30534;DHT22;17318;52.390;9.754;2022-09-27T04:32:57;12.80;99.90
30534;DHT22;17318;52.390;9.754;2022-09-27T04:35:22;12.80;99.90
30534;DHT22;17318;52.390;9.754;2022-09-27T04:38:06;12.70;99.90
30534;DHT22;17318;52.390;9.754;2022-09-27T04:40:35;12.60;99.90
30534;DHT22;17318;52.390;9.754;2022-09-27T04:43:02;12.70;99.90
30534;DHT22;17318;52.390;9.754;2022-09-27T04:45:29;12.70;99.90
30534;DHT22;17318;52.390;9.754;2022-09-27T04:47:55;12.60;99.90
30534;DHT22;17318;52.390;9.754;2022-09-27T04:50:20;12.60;99.90
30534;DHT22;17318;52.390;9.754;2022-09-27T04:52:50;12.60;99.90
30534;DHT22;17318;52.390;9.754;2022-09-27T04:55:17;12.60;99.90
30534;DHT22;17318;52.390;9.754;2022-09-27T04:57:43;12.40;99.90
30534;DHT22;17318;52.390;9.754;2022-09-27T05:00:09;12.40;99.90
30534;DHT22;17318;52.390;9.754;2022-09-27T05:02:35;12.50;99.90
30534;DHT22;17318;52.390;9.754;2022-09-27T05:05:01;12.50;99.90
30534;DHT22;17318;52.390;9.754;2022-09-27T05:07:28;12.50;99.90
30534;DHT22;17318;52.390;9.754;2022-09-27T05:09:54;12.60;99.90
30534;DHT22;17318;52.390;9.754;2022-09-27T05:12:21;12.40;99.90
30534;DHT22;17318;52.390;9.754;2022-09-27T05:14:47;12.40;99.90
30534;DHT22;17318;52.390;9.754;2022-09-27T05:17:13;12.50;99.90
30534;DHT22;17318;52.390;9.754;2022-09-27T05:19:39;12.60;99.90
30534;DHT22;17318;52.390;9.754;2022-09-27T05:22:05;12.60;99.90
30534;DHT22;17318;52.390;9.754;2022-09-27T05:24:32;12.50;99.90
30534;DHT22;17318;52.390;9.754;2022-09-27T05:26:59;12.50;99.90
30534;DHT22;17318;52.390;9.754;2022-09-27T05:29:24;12.50;99.90
30534;DHT22;17318;52.390;9.754;2022-09-27T05:31:50;12.50;99.90
30534;DHT22;17318;52.390;9.754;2022-09-27T05:34:16;12.50;99.90
30534;DHT22;17318;52.390;9.754;2022-09-27T05:36:47;12.60;99.90
30534;DHT22;17318;52.390;9.754;2022-09-27T05:39:13;12.60;99.90
30534;DHT22;17318;52.390;9.754;2022-09-27T05:41:44;12.60;99.90
30534;DHT22;17318;52.390;9.754;2022-09-27T05:44:10;12.70;99.90
30534;DHT22;17318;52.390;9.754;2022-09-27T05:46:38;12.40;99.90
30534;DHT22;17318;52.390;9.754;2022-09-27T05:49:04;12.40;99.90
30534;DHT22;17318;52.390;9.754;2022-09-27T05:51:30;12.70;99.90
30534;DHT22;17318;52.390;9.754;2022-09-27T05:53:56;12.60;99.90
30534;DHT22;17318;52.390;9.754;2022-09-27T05:56:21;12.60;99.90
30534;DHT22;17318;52.390;9.754;2022-09-27T05:58:47;12.50;99.90
30534;DHT22;17318;52.390;9.754;2022-09-27T06:01:13;12.60;99.90
30534;DHT22;17318;52.390;9.754;2022-09-27T06:03:38;12.60;99.90
30534;DHT22;17318;52.390;9.754;2022-09-27T06:06:06;12.60;99.90
30534;DHT22;17318;52.390;9.754;2022-09-27T06:08:33;12.60;99.90
30534;DHT22;17318;52.390;9.754;2022-09-27T06:11:10;12.50;99.90
30534;DHT22;17318;52.390;9.754;2022-09-27T06:13:39;12.60;99.90
30534;DHT22;17318;52.390;9.754;2022-09-27T06:16:06;12.50;99.90
30534;DHT22;17318;52.390;9.754;2022-09-27T06:18:32;12.50;99.90
30534;DHT22;17318;52.390;9.754;2022-09-27T06:20:59;12.40;99.90
30534;DHT22;17318;52.390;9.754;2022-09-27T06:23:25;12.50;99.90
30534;DHT22;17318;52.390;9.754;2022-09-27T06:25:51;12.60;99.90
30534;DHT22;17318;52.390;9.754;2022-09-27T06:28:18;12.50;99.90
30534;DHT22;17318;52.390;9.754;2022-09-27T06:30:46;12.50;99.90
30534;DHT22;17318;52.390;9.754;2022-09-27T06:33:14;12.50;99.90
30534;DHT22;17318;52.390;9.754;2022-09-27T06:35:40;12.60;99.90
30534;DHT22;17318;52.390;9.754;2022-09-27T06:38:09;12.60;99.90
30534;DHT22;17318;52.390;9.754;2022-09-27T06:40:35;12.60;99.90
30534;DHT22;17318;52.390;9.754;2022-09-27T06:43:05;12.70;99.90
30534;DHT22;17318;52.390;9.754;2022-09-27T06:45:32;12.50;99.90
30534;DHT22;17318;52.390;9.754;2022-09-27T06:47:58;12.60;99.90
30534;DHT22;17318;52.390;9.754;2022-09-27T06:50:27;12.70;99.90
30534;DHT22;17318;52.390;9.754;2022-09-27T06:52:53;12.70;99.90
30534;DHT22;17318;52.390;9.754;2022-09-27T06:55:19;12.70;99.90
30534;DHT22;17318;52.390;9.754;2022-09-27T06:57:45;12.60;99.90
30534;DHT22;17318;52.390;9.754;2022-09-27T07:00:29;12.70;99.90
30534;DHT22;17318;52.390;9.754;2022-09-27T07:02:57;12.70;99.90
30534;DHT22;17318;52.390;9.754;2022-09-27T07:05:26;12.70;99.90
30534;DHT22;17318;52.390;9.754;2022-09-27T07:07:54;12.70;99.90
30534;DHT22;17318;52.390;9.754;2022-09-27T07:10:22;12.70;99.90
30534;DHT22;17318;52.390;9.754;2022-09-27T07:12:48;12.60;99.90
30534;DHT22;17318;52.390;9.754;2022-09-27T07:15:14;12.50;99.90
30534;DHT22;17318;52.390;9.754;2022-09-27T07:17:40;12.60;99.90
30534;DHT22;17318;52.390;9.754;2022-09-27T07:20:07;12.70;99.90
30534;DHT22;17318;52.390;9.754;2022-09-27T07:22:39;12.70;99.90
30534;DHT22;17318;52.390;9.754;2022-09-27T07:25:06;12.70;99.90
30534;DHT22;17318;52.390;9.754;2022-09-27T07:27:31;12.70;99.90
30534;DHT22;17318;52.390;9.754;2022-09-27T07:29:57;12.60;99.90
30534;DHT22;17318;52.390;9.754;2022-09-27T07:32:23;12.70;99.90
30534;DHT22;17318;52.390;9.754;2022-09-27T07:34:48;12.70;99.90
30534;DHT22;17318;52.390;9.754;2022-09-27T07:37:14;12.60;99.90
30534;DHT22;17318;52.390;9.754;2022-09-27T07:39:41;12.50;99.90
30534;DHT22;17318;52.390;9.754;2022-09-27T07:42:07;12.50;99.90
30534;DHT22;17318;52.390;9.754;2022-09-27T07:44:33;12.50;99.90
30534;DHT22;17318;52.390;9.754;2022-09-27T07:46:58;12.60;99.90
30534;DHT22;17318;52.390;9.754;2022-09-27T07:49:24;12.60;99.90
30534;DHT22;17318;52.390;9.754;2022-09-27T07:51:49;12.50;99.90
30534;DHT22;17318;52.390;9.754;2022-09-27T07:54:16;12.50;99.90
30534;DHT22;17318;52.390;9.754;2022-09-27T07:56:44;12.50;99.90
30534;DHT22;17318;52.390;9.754;2022-09-27T07:59:09;12.60;99.90
30534;DHT22;17318;52.390;9.754;2022-09-27T08:01:35;12.60;99.90
30534;DHT22;17318;52.390;9.754;2022-09-27T08:04:01;12.50;99.90
30534;DHT22;17318;52.390;9.754;2022-09-27T08:06:27;12.40;99.90
30534;DHT22;17318;52.390;9.754;2022-09-27T08:08:53;12.40;99.90
30534;DHT22;17318;52.390;9.754;2022-09-27T08:11:19;12.20;99.90
30534;DHT22;17318;52.390;9.754;2022-09-27T08:13:46;12.20;99.90
30534;DHT22;17318;52.390;9.754;2022-09-27T08:16:14;12.20;99.90
30534;DHT22;17318;52.390;9.754;2022-09-27T08:18:40;12.20;99.90
30534;DHT22;17318;52.390;9.754;2022-09-27T08:21:05;12.20;99.90
30534;DHT22;17318;52.390;9.754;2022-09-27T08:23:31;12.30;99.90
30534;DHT22;17318;52.390;9.754;2022-09-27T08:25:57;12.40;99.90
30534;DHT22;17318;52.390;9.754;2022-09-27T08:28:25;12.30;99.90
30534;DHT22;17318;52.390;9.754;2022-09-27T08:30:51;12.40;99.90
30534;DHT22;17318;52.390;9.754;2022-09-27T08:33:17;12.40;99.90
30534;DHT22;17318;52.390;9.754;2022-09-27T08:35:43;12.30;99.90
30534;DHT22;17318;52.390;9.754;2022-09-27T08:38:09;12.30;99.90
30534;DHT22;17318;52.390;9.754;2022-09-27T08:43:15;12.40;99.90
30534;DHT22;17318;52.390;9.754;2022-09-27T08:48:51;12.60;99.90
30534;DHT22;17318;52.390;9.754;2022-09-27T08:51:21;12.60;99.90
30534;DHT22;17318;52.390;9.754;2022-09-27T08:53:54;12.50;99.90
30534;DHT22;17318;52.390;9.754;2022-09-27T08:56:22;12.70;99.90
30534;DHT22;17318;52.390;9.754;2022-09-27T08:59:18;12.70;99.90
30534;DHT22;17318;52.390;9.754;2022-09-27T09:01:46;12.70;99.90
30534;DHT22;17318;52.390;9.754;2022-09-27T09:04:21;12.80;99.90
30534;DHT22;17318;52.390;9.754;2022-09-27T09:07:00;12.80;99.90
30534;DHT22;17318;52.390;9.754;2022-09-27T09:09:58;12.80;99.90
30534;DHT22;17318;52.390;9.754;2022-09-27T09:17:54;12.80;99.90
30534;DHT22;17318;52.390;9.754;2022-09-27T09:23:41;12.90;99.90
30534;DHT22;17318;52.390;9.754;2022-09-27T09:31:49;13.70;99.90
30534;DHT22;17318;52.390;9.754;2022-09-27T09:34:52;13.80;99.90
30534;DHT22;17318;52.390;9.754;2022-09-27T09:37:43;13.80;99.90
30534;DHT22;17318;52.390;9.754;2022-09-27T09:40:29;13.90;99.90
30534;DHT22;17318;52.390;9.754;2022-09-27T09:43:27;14.10;99.90
30534;DHT22;17318;52.390;9.754;2022-09-27T09:48:56;14.40;99.90
30534;DHT22;17318;52.390;9.754;2022-09-27T09:51:31;14.60;99.90
30534;DHT22;17318;52.390;9.754;2022-09-27T09:54:19;14.70;99.90
30534;DHT22;17318;52.390;9.754;2022-09-27T09:56:50;14.30;99.40
30534;DHT22;17318;52.390;9.754;2022-09-27T09:59:23;14.20;99.90
30534;DHT22;17318;52.390;9.754;2022-09-27T10:01:52;14.60;99.90
30534;DHT22;17318;52.390;9.754;2022-09-27T10:04:23;14.40;99.60
30534;DHT22;17318;52.390;9.754;2022-09-27T10:06:51;14.70;99.90
30534;DHT22;17318;52.390;9.754;2022-09-27T10:09:22;14.60;99.60
30534;DHT22;17318;52.390;9.754;2022-09-27T10:11:49;14.50;99.80
30534;DHT22;17318;52.390;9.754;2022-09-27T10:14:17;14.50;99.90
30534;DHT22;17318;52.390;9.754;2022-09-27T10:16:46;14.30;99.40
30534;DHT22;17318;52.390;9.754;2022-09-27T10:19:18;14.40;99.00
30534;DHT22;17318;52.390;9.754;2022-09-27T10:21:47;14.60;98.60
30534;DHT22;17318;52.390;9.754;2022-09-27T10:24:15;14.80;98.70
30534;DHT22;17318;52.390;9.754;2022-09-27T10:26:43;14.80;98.50
30534;DHT22;17318;52.390;9.754;2022-09-27T10:29:16;14.60;98.20
30534;DHT22;17318;52.390;9.754;2022-09-27T10:31:43;14.20;98.40
30534;DHT22;17318;52.390;9.754;2022-09-27T10:34:32;14.00;98.90
30534;DHT22;17318;52.390;9.754;2022-09-27T10:39:28;13.70;99.90
30534;DHT22;17318;52.390;9.754;2022-09-27T10:41:54;13.70;99.90
30534;DHT22;17318;52.390;9.754;2022-09-27T10:44:29;13.80;99.90
30534;DHT22;17318;52.390;9.754;2022-09-27T10:47:05;14.10;99.90
30534;DHT22;17318;52.390;9.754;2022-09-27T10:49:38;13.90;99.90
30534;DHT22;17318;52.390;9.754;2022-09-27T10:52:07;13.90;99.90
30534;DHT22;17318;52.390;9.754;2022-09-27T10:54:39;13.90;99.90
30534;DHT22;17318;52.390;9.754;2022-09-27T10:57:20;13.70;99.80
30534;DHT22;17318;52.390;9.754;2022-09-27T10:59:53;13.70;99.90
30534;DHT22;17318;52.390;9.754;2022-09-27T11:02:32;13.80;99.20
30534;DHT22;17318;52.390;9.754;2022-09-27T11:08:06;15.40;98.60
30534;DHT22;17318;52.390;9.754;2022-09-27T11:10:44;16.40;96.60
30534;DHT22;17318;52.390;9.754;2022-09-27T11:13:24;17.90;95.70
30534;DHT22;17318;52.390;9.754;2022-09-27T11:18:59;17.80;95.30
30534;DHT22;17318;52.390;9.754;2022-09-27T11:24:24;16.60;93.90
30534;DHT22;17318;52.390;9.754;2022-09-27T11:30:12;15.50;95.30
30534;DHT22;17318;52.390;9.754;2022-09-27T11:33:19;15.30;95.80
30534;DHT22;17318;52.390;9.754;2022-09-27T11:36:07;15.20;96.00
30534;DHT22;17318;52.390;9.754;2022-09-27T12:09:22;13.00;99.90
30534;DHT22;17318;52.390;9.754;2022-09-27T12:11:52;13.10;99.80
30534;DHT22;17318;52.390;9.754;2022-09-27T12:14:37;13.40;99.90
30534;DHT22;17318;52.390;9.754;2022-09-27T12:17:23;13.60;99.80
30534;DHT22;17318;52.390;9.754;2022-09-27T12:19:53;13.50;99.30
30534;DHT22;17318;52.390;9.754;2022-09-27T12:22:35;13.10;99.90
30534;DHT22;17318;52.390;9.754;2022-09-27T12:25:03;13.30;99.90
30534;DHT22;17318;52.390;9.754;2022-09-27T12:27:42;13.40;99.90
30534;DHT22;17318;52.390;9.754;2022-09-27T12:30:11;13.20;99.90
30534;DHT22;17318;52.390;9.754;2022-09-27T12:35:43;12.90;99.90
30534;DHT22;17318;52.390;9.754;2022-09-27T12:38:34;13.00;99.90
30534;DHT22;17318;52.390;9.754;2022-09-27T12:41:04;13.00;99.90
30534;DHT22;17318;52.390;9.754;2022-09-27T12:43:31;13.00;99.90
30534;DHT22;17318;52.390;9.754;2022-09-27T12:49:11;13.10;99.90
30534;DHT22;17318;52.390;9.754;2022-09-27T12:51:56;13.00;99.90
30534;DHT22;17318;52.390;9.754;2022-09-27T12:57:43;13.10;99.90
30534;DHT22;17318;52.390;9.754;2022-09-27T13:00:20;13.20;99.90
30534;DHT22;17318;52.390;9.754;2022-09-27T13:05:31;13.10;99.90
30534;DHT22;17318;52.390;9.754;2022-09-27T13:08:25;13.10;99.90
30534;DHT22;17318;52.390;9.754;2022-09-27T13:13:32;13.10;99.90
30534;DHT22;17318;52.390;9.754;2022-09-27T13:16:00;13.10;99.90
30534;DHT22;17318;52.390;9.754;2022-09-27T13:21:06;13.10;99.90
30534;DHT22;17318;52.390;9.754;2022-09-27T13:28:58;13.00;99.90
30534;DHT22;17318;52.390;9.754;2022-09-27T13:34:53;13.00;99.90
30534;DHT22;17318;52.390;9.754;2022-09-27T13:42:54;13.20;99.90
30534;DHT22;17318;52.390;9.754;2022-09-27T13:45:53;13.30;99.90
30534;DHT22;17318;52.390;9.754;2022-09-27T13:48:36;13.20;99.90
30534;DHT22;17318;52.390;9.754;2022-09-27T13:51:16;13.20;99.90
30534;DHT22;17318;52.390;9.754;2022-09-27T13:53:53;13.10;99.90
30534;DHT22;17318;52.390;9.754;2022-09-27T13:59:09;13.40;99.90
30534;DHT22;17318;52.390;9.754;2022-09-27T14:01:44;13.50;99.90
30534;DHT22;17318;52.390;9.754;2022-09-27T14:04:25;13.50;99.90
30534;DHT22;17318;52.390;9.754;2022-09-27T14:06:56;13.50;99.90
30534;DHT22;17318;52.390;9.754;2022-09-27T14:09:33;13.70;99.90
30534;DHT22;17318;52.390;9.754;2022-09-27T14:12:20;13.70;99.90
30534;DHT22;17318;52.390;9.754;2022-09-27T14:14:47;13.70;99.90
30534;DHT22;17318;52.390;9.754;2022-09-27T14:17:15;13.70;99.90
30534;DHT22;17318;52.390;9.754;2022-09-27T14:19:43;13.90;99.90
30534;DHT22;17318;52.390;9.754;2022-09-27T14:22:42;13.90;99.90
30534;DHT22;17318;52.390;9.754;2022-09-27T14:25:01;13.70;99.90
30534;DHT22;17318;52.390;9.754;2022-09-27T14:27:34;13.70;99.70
30534;DHT22;17318;52.390;9.754;2022-09-27T14:30:14;13.80;99.80
30534;DHT22;17318;52.390;9.754;2022-09-27T14:32:51;13.60;99.60
30534;DHT22;17318;52.390;9.754;2022-09-27T14:35:21;13.70;99.90
30534;DHT22;17318;52.390;9.754;2022-09-27T14:38:14;13.80;99.90
30534;DHT22;17318;52.390;9.754;2022-09-27T14:40:58;13.80;99.90
30534;DHT22;17318;52.390;9.754;2022-09-27T14:43:24;13.80;99.90
30534;DHT22;17318;52.390;9.754;2022-09-27T14:45:55;13.70;99.90
30534;DHT22;17318;52.390;9.754;2022-09-27T14:53:54;13.10;99.90
30534;DHT22;17318;52.390;9.754;2022-09-27T14:56:34;13.00;99.90
30534;DHT22;17318;52.390;9.754;2022-09-27T14:59:12;12.80;99.90
30534;DHT22;17318;52.390;9.754;2022-09-27T15:01:49;12.60;99.90
30534;DHT22;17318;52.390;9.754;2022-09-27T15:04:16;12.60;99.90
30534;DHT22;17318;52.390;9.754;2022-09-27T15:06:42;12.80;99.90
30534;DHT22;17318;52.390;9.754;2022-09-27T15:09:13;12.70;99.90
30534;DHT22;17318;52.390;9.754;2022-09-27T15:11:43;12.80;99.90
30534;DHT22;17318;52.390;9.754;2022-09-27T15:14:15;12.80;99.90
30534;DHT22;17318;52.390;9.754;2022-09-27T15:16:42;12.70;99.90
30534;DHT22;17318;52.390;9.754;2022-09-27T15:19:16;12.80;99.90
30534;DHT22;17318;52.390;9.754;2022-09-27T15:21:46;12.80;99.90
30534;DHT22;17318;52.390;9.754;2022-09-27T15:24:44;12.80;99.90
30534;DHT22;17318;52.390;9.754;2022-09-27T15:27:19;12.80;99.90
30534;DHT22;17318;52.390;9.754;2022-09-27T15:29:51;12.80;99.90
30534;DHT22;17318;52.390;9.754;2022-09-27T15:32:20;12.70;99.90
30534;DHT22;17318;52.390;9.754;2022-09-27T15:34:47;12.80;99.90
30534;DHT22;17318;52.390;9.754;2022-09-27T15:37:34;12.80;99.90
30534;DHT22;17318;52.390;9.754;2022-09-27T15:43:25;12.80;99.90
30534;DHT22;17318;52.390;9.754;2022-09-27T15:45:53;12.80;99.90
30534;DHT22;17318;52.390;9.754;2022-09-27T15:48:20;12.70;99.90
30534;DHT22;17318;52.390;9.754;2022-09-27T15:50:47;12.70;99.90
30534;DHT22;17318;52.390;9.754;2022-09-27T15:55:58;12.60;99.90
30534;DHT22;17318;52.390;9.754;2022-09-27T15:58:24;12.60;99.90
30534;DHT22;17318;52.390;9.754;2022-09-27T16:00:56;12.60;99.90
30534;DHT22;17318;52.390;9.754;2022-09-27T16:03:24;12.60;99.90
30534;DHT22;17318;52.390;9.754;2022-09-27T16:05:50;12.60;99.90
30534;DHT22;17318;52.390;9.754;2022-09-27T16:08:16;12.60;99.90
30534;DHT22;17318;52.390;9.754;2022-09-27T16:10:45;12.70;99.90
30534;DHT22;17318;52.390;9.754;2022-09-27T16:13:12;12.70;99.90
30534;DHT22;17318;52.390;9.754;2022-09-27T16:15:38;12.70;99.90
30534;DHT22;17318;52.390;9.754;2022-09-27T16:18:04;12.70;99.90
30534;DHT22;17318;52.390;9.754;2022-09-27T16:20:30;12.60;99.90
30534;DHT22;17318;52.390;9.754;2022-09-27T16:22:57;12.70;99.90
30534;DHT22;17318;52.390;9.754;2022-09-27T16:25:23;12.70;99.90
30534;DHT22;17318;52.390;9.754;2022-09-27T16:27:50;12.70;99.90
30534;DHT22;17318;52.390;9.754;2022-09-27T16:30:17;12.60;99.90
30534;DHT22;17318;52.390;9.754;2022-09-27T16:32:46;12.50;99.90
30534;DHT22;17318;52.390;9.754;2022-09-27T16:35:13;12.50;99.90
30534;DHT22;17318;52.390;9.754;2022-09-27T16:37:39;12.60;99.90
30534;DHT22;17318;52.390;9.754;2022-09-27T16:40:07;12.60;99.90
30534;DHT22;17318;52.390;9.754;2022-09-27T16:42:33;12.50;99.90
30534;DHT22;17318;52.390;9.754;2022-09-27T16:44:59;12.50;99.90
30534;DHT22;17318;52.390;9.754;2022-09-27T16:47:26;12.60;99.90
30534;DHT22;17318;52.390;9.754;2022-09-27T16:49:52;12.50;99.90
30534;DHT22;17318;52.390;9.754;2022-09-27T16:52:36;12.60;99.90
30534;DHT22;17318;52.390;9.754;2022-09-27T16:55:03;12.60;99.90
30534;DHT22;17318;52.390;9.754;2022-09-27T16:57:32;12.70;99.90
30534;DHT22;17318;52.390;9.754;2022-09-27T16:59:59;12.70;99.90
30534;DHT22;17318;52.390;9.754;2022-09-27T17:02:25;12.70;99.90
30534;DHT22;17318;52.390;9.754;2022-09-27T17:04:51;12.60;99.90
30534;DHT22;17318;52.390;9.754;2022-09-27T17:07:18;12.60;99.90
30534;DHT22;17318;52.390;9.754;2022-09-27T17:09:44;12.60;99.90
30534;DHT22;17318;52.390;9.754;2022-09-27T17:12:11;12.50;99.90
30534;DHT22;17318;52.390;9.754;2022-09-27T17:14:36;12.50;99.90
30534;DHT22;17318;52.390;9.754;2022-09-27T17:17:02;12.30;99.90
30534;DHT22;17318;52.390;9.754;2022-09-27T17:19:28;12.10;99.90
30534;DHT22;17318;52.390;9.754;2022-09-27T17:21:54;12.30;99.90
30534;DHT22;17318;52.390;9.754;2022-09-27T17:24:22;12.30;99.90
30534;DHT22;17318;52.390;9.754;2022-09-27T17:26:47;12.40;99.90
30534;DHT22;17318;52.390;9.754;2022-09-27T17:29:13;12.40;99.90
30534;DHT22;17318;52.390;9.754;2022-09-27T17:31:40;12.40;99.90
30534;DHT22;17318;52.390;9.754;2022-09-27T17:34:07;12.30;99.90
30534;DHT22;17318;52.390;9.754;2022-09-27T17:36:37;12.30;99.90
30534;DHT22;17318;52.390;9.754;2022-09-27T17:39:07;12.20;99.90
30534;DHT22;17318;52.390;9.754;2022-09-27T17:41:34;12.40;99.90
30534;DHT22;17318;52.390;9.754;2022-09-27T17:44:01;12.40;99.90
30534;DHT22;17318;52.390;9.754;2022-09-27T17:46:32;12.40;99.90
30534;DHT22;17318;52.390;9.754;2022-09-27T17:48:59;12.40;99.90
30534;DHT22;17318;52.390;9.754;2022-09-27T17:51:47;12.40;99.90
30534;DHT22;17318;52.390;9.754;2022-09-27T17:54:14;12.40;99.90
30534;DHT22;17318;52.390;9.754;2022-09-27T17:56:42;12.40;99.90
30534;DHT22;17318;52.390;9.754;2022-09-27T17:59:09;12.40;99.90
30534;DHT22;17318;52.390;9.754;2022-09-27T18:01:36;12.40;99.90
30534;DHT22;17318;52.390;9.754;2022-09-27T18:04:04;12.40;99.90
30534;DHT22;17318;52.390;9.754;2022-09-27T18:06:30;12.50;99.90
30534;DHT22;17318;52.390;9.754;2022-09-27T18:08:56;12.40;99.90
30534;DHT22;17318;52.390;9.754;2022-09-27T18:11:25;12.40;99.90
30534;DHT22;17318;52.390;9.754;2022-09-27T18:13:55;12.40;99.90
30534;DHT22;17318;52.390;9.754;2022-09-27T18:16:22;12.40;99.90
30534;DHT22;17318;52.390;9.754;2022-09-27T18:18:54;12.40;99.90
30534;DHT22;17318;52.390;9.754;2022-09-27T18:21:20;12.40;99.90
30534;DHT22;17318;52.390;9.754;2022-09-27T18:23:49;12.40;99.90
30534;DHT22;17318;52.390;9.754;2022-09-27T18:26:19;12.30;99.90
30534;DHT22;17318;52.390;9.754;2022-09-27T18:28:48;12.40;99.90
30534;DHT22;17318;52.390;9.754;2022-09-27T18:31:15;12.40;99.90
30534;DHT22;17318;52.390;9.754;2022-09-27T18:33:42;12.40;99.90